createdAt,value
2022-10-11T00:00:38.968Z,101058.34
2022-10-11T00:03:41.474Z,101055.88
2022-10-11T00:06:43.886Z,101055.13
2022-10-11T00:09:46.469Z,101056.19
2022-10-11T00:12:49.055Z,101051.72
2022-10-11T00:15:51.631Z,101053.41
2022-10-11T00:18:53.863Z,101043.91
2022-10-11T00:21:56.367Z,101050.06
2022-10-11T00:24:59.211Z,101044.94
2022-10-11T00:28:01.750Z,101039.19
2022-10-11T00:31:07.287Z,101038.38
2022-10-11T00:34:12.029Z,101029.06
2022-10-11T00:37:14.210Z,101033.72
2022-10-11T00:40:18.622Z,101039.03
2022-10-11T00:43:22.856Z,101035.72
2022-10-11T00:46:27.683Z,101031.59
2022-10-11T00:49:29.860Z,101039.41
2022-10-11T00:52:37.878Z,101036.16
2022-10-11T00:55:45.098Z,101034.63
2022-10-11T00:58:48.544Z,101030.47
2022-10-11T01:01:51.356Z,101027.88
2022-10-11T01:05:11.326Z,101019.22
2022-10-11T01:08:16.549Z,101021.78
2022-10-11T01:11:21.171Z,101021.84
2022-10-11T01:14:43.674Z,101016.78
2022-10-11T01:17:48.887Z,101024.72
2022-10-11T01:21:03.478Z,101027.37
2022-10-11T01:24:08.593Z,101026.47
2022-10-11T01:27:29.471Z,101027.53
2022-10-11T01:30:33.079Z,101026.78
2022-10-11T01:33:35.622Z,101023.41
2022-10-11T01:36:42.672Z,101022.56
2022-10-11T01:39:59.985Z,101014.84
2022-10-11T01:43:03.545Z,101014.84
2022-10-11T01:46:07.848Z,101013.09
2022-10-11T01:49:10.997Z,101008.81
2022-10-11T01:52:13.221Z,101006.28
2022-10-11T01:55:21.881Z,101006.41
2022-10-11T01:58:30.231Z,101011.81
2022-10-11T02:01:35.542Z,101008.41
2022-10-11T02:04:48.343Z,101011.84
2022-10-11T02:08:05.846Z,101016.16
2022-10-11T02:11:08.279Z,101016.09
2022-10-11T02:14:10.510Z,101010.94
2022-10-11T02:17:21.845Z,101011.84
2022-10-11T02:20:25.745Z,101014.50
2022-10-11T02:23:32.612Z,101014.50
2022-10-11T02:26:36.186Z,101008.53
2022-10-11T02:29:41.549Z,101006.00
2022-10-11T02:32:46.571Z,101012.97
2022-10-11T02:35:53.525Z,101013.06
2022-10-11T02:38:58.101Z,101015.66
2022-10-11T02:42:02.436Z,101020.88
2022-10-11T02:45:11.151Z,101014.00
2022-10-11T02:48:14.307Z,101014.91
2022-10-11T02:51:18.183Z,101017.56
2022-10-11T02:54:20.667Z,101016.69
2022-10-11T02:57:22.901Z,101019.19
2022-10-11T03:00:25.904Z,101021.56
2022-10-11T03:03:28.120Z,101019.66
2022-10-11T03:06:30.933Z,101011.56
2022-10-11T03:09:33.299Z,101019.22
2022-10-11T03:12:35.822Z,101022.63
2022-10-11T03:15:38.040Z,101020.03
2022-10-11T03:18:41.061Z,101015.66
2022-10-11T03:21:43.337Z,101013.22
2022-10-11T03:24:45.827Z,101011.53
2022-10-11T03:27:48.008Z,101020.22
2022-10-11T03:30:51.479Z,101015.81
2022-10-11T03:33:53.780Z,101026.25
2022-10-11T03:36:56.245Z,101027.25
2022-10-11T03:39:58.617Z,101036.69
2022-10-11T03:43:01.398Z,101033.94
2022-10-11T03:46:04.140Z,101035.50
2022-10-11T03:49:06.916Z,101025.00
2022-10-11T03:52:09.368Z,101030.94
2022-10-11T03:55:11.879Z,101038.62
2022-10-11T03:58:14.083Z,101037.56
2022-10-11T04:01:16.652Z,101033.00
2022-10-11T04:04:19.267Z,101034.59
2022-10-11T04:07:21.685Z,101042.22
2022-10-11T04:10:25.044Z,101040.28
2022-10-11T04:13:27.264Z,101046.94
2022-10-11T04:16:29.716Z,101045.91
2022-10-11T04:19:32.154Z,101043.19
2022-10-11T04:22:34.782Z,101043.13
2022-10-11T04:25:38.226Z,101047.47
2022-10-11T04:28:40.866Z,101047.34
2022-10-11T04:31:43.328Z,101049.06
2022-10-11T04:34:45.846Z,101048.22
2022-10-11T04:37:48.040Z,101052.25
2022-10-11T04:40:50.879Z,101042.91
2022-10-11T04:43:53.089Z,101037.66
2022-10-11T04:46:55.704Z,101040.34
2022-10-11T04:49:57.908Z,101039.53
2022-10-11T04:53:00.360Z,101042.94
2022-10-11T04:56:05.084Z,101038.66
2022-10-11T04:59:07.943Z,101042.16
2022-10-11T05:02:10.161Z,101034.28
2022-10-11T05:05:17.365Z,101040.41
2022-10-11T05:08:19.872Z,101044.75
2022-10-11T05:11:22.305Z,101043.06
2022-10-11T05:14:24.568Z,101044.69
2022-10-11T05:17:27.071Z,101042.75
2022-10-11T05:20:29.376Z,101044.22
2022-10-11T05:23:32.628Z,101048.38
2022-10-11T05:26:34.880Z,101045.47
2022-10-11T05:29:37.367Z,101057.28
2022-10-11T05:32:39.573Z,101052.56
2022-10-11T05:35:42.516Z,101055.47
2022-10-11T05:38:44.907Z,101052.50
2022-10-11T05:41:47.564Z,101061.94
2022-10-11T05:44:49.795Z,101073.87
2022-10-11T05:47:52.318Z,101072.72
2022-10-11T05:51:03.004Z,101070.06
2022-10-11T05:54:05.453Z,101075.88
2022-10-11T05:57:07.813Z,101077.50
2022-10-11T06:00:11.131Z,101081.50
2022-10-11T06:03:14.418Z,101081.41
2022-10-11T06:06:17.170Z,101087.66
2022-10-11T06:09:19.469Z,101086.69
2022-10-11T06:12:21.983Z,101097.97
2022-10-11T06:15:24.622Z,101108.06
2022-10-11T06:18:27.130Z,101099.81
2022-10-11T06:21:29.503Z,101103.09
2022-10-11T06:24:31.958Z,101104.44
2022-10-11T06:27:34.410Z,101102.53
2022-10-11T06:30:38.303Z,101109.44
2022-10-11T06:33:40.557Z,101115.06
2022-10-11T06:36:43.072Z,101105.13
2022-10-11T06:39:45.293Z,101115.25
2022-10-11T06:42:48.716Z,101113.06
2022-10-11T06:45:50.902Z,101113.97
2022-10-11T06:48:56.271Z,101109.09
2022-10-11T06:51:58.645Z,101111.97
2022-10-11T06:55:01.153Z,101104.87
2022-10-11T06:58:03.375Z,101110.12
2022-10-11T07:01:10.042Z,101115.69
2022-10-11T07:04:12.372Z,101116.78
2022-10-11T07:07:14.895Z,101117.72
2022-10-11T07:10:18.212Z,101124.69
2022-10-11T07:13:20.709Z,101125.72
2022-10-11T07:16:23.257Z,101129.69
2022-10-11T07:19:26.117Z,101128.72
2022-10-11T07:22:28.364Z,101129.00
2022-10-11T07:25:30.941Z,101125.59
2022-10-11T07:28:33.516Z,101121.66
2022-10-11T07:31:37.089Z,101126.62
2022-10-11T07:34:39.364Z,101126.69
2022-10-11T07:37:41.809Z,101123.16
2022-10-11T07:40:45.955Z,101125.50
2022-10-11T07:43:49.690Z,101128.09
2022-10-11T07:46:52.305Z,101121.69
2022-10-11T07:49:57.557Z,101125.00
2022-10-11T07:53:00.129Z,101124.97
2022-10-11T07:56:02.973Z,101132.47
2022-10-11T07:59:06.338Z,101136.84
2022-10-11T08:02:11.836Z,101138.87
2022-10-11T08:05:14.382Z,101137.19
2022-10-11T08:08:16.606Z,101137.47
2022-10-11T08:11:20.422Z,101144.00
2022-10-11T08:14:22.614Z,101132.63
2022-10-11T08:17:25.120Z,101135.97
2022-10-11T08:20:28.362Z,101139.47
2022-10-11T08:23:30.874Z,101133.91
2022-10-11T08:26:33.714Z,101143.31
2022-10-11T08:29:36.216Z,101132.16
2022-10-11T08:32:38.498Z,101140.03
2022-10-11T08:35:41.059Z,101136.38
2022-10-11T08:38:43.335Z,101137.59
2022-10-11T08:41:52.417Z,101140.91
2022-10-11T08:45:10.581Z,101136.56
2022-10-11T08:48:27.632Z,101135.78
2022-10-11T08:51:40.793Z,101134.34
2022-10-11T08:54:58.183Z,101136.44
2022-10-11T08:58:00.901Z,101132.84
2022-10-11T09:01:04.117Z,101129.00
2022-10-11T09:04:06.653Z,101132.53
2022-10-11T09:07:19.042Z,101129.75
2022-10-11T09:10:33.721Z,101128.72
2022-10-11T09:13:52.477Z,101132.88
2022-10-11T09:16:54.694Z,101129.47
2022-10-11T09:20:03.408Z,101134.59
2022-10-11T09:23:08.643Z,101136.53
2022-10-11T09:26:41.691Z,101130.72
2022-10-11T09:30:02.709Z,101138.91
2022-10-11T09:33:17.343Z,101137.84
2022-10-11T09:36:28.913Z,101139.69
2022-10-11T09:39:39.504Z,101144.47
2022-10-11T09:42:41.705Z,101140.34
2022-10-11T09:45:49.552Z,101135.97
2022-10-11T09:48:54.579Z,101137.63
2022-10-11T09:51:58.756Z,101138.44
2022-10-11T09:55:02.410Z,101141.59
2022-10-11T09:58:05.586Z,101137.00
2022-10-11T10:01:09.109Z,101134.56
2022-10-11T10:04:13.009Z,101137.31
2022-10-11T10:07:15.701Z,101140.19
2022-10-11T10:10:26.827Z,101139.66
2022-10-11T10:13:28.973Z,101135.56
2022-10-11T10:16:32.941Z,101132.44
2022-10-11T10:19:47.084Z,101137.56
2022-10-11T10:22:49.676Z,101123.75
2022-10-11T10:25:53.029Z,101121.69
2022-10-11T10:28:58.742Z,101110.19
2022-10-11T10:32:14.210Z,101107.53
2022-10-11T10:35:36.391Z,101112.84
2022-10-11T10:38:42.964Z,101109.78
2022-10-11T10:41:45.475Z,101113.81
2022-10-11T10:44:51.361Z,101114.59
2022-10-11T10:48:02.803Z,101106.28
2022-10-11T10:51:10.463Z,101107.47
2022-10-11T10:54:37.951Z,101099.13
2022-10-11T10:57:59.014Z,101104.97
2022-10-11T11:01:04.743Z,101102.25
2022-10-11T11:04:10.101Z,101104.69
2022-10-11T11:07:24.948Z,101099.69
2022-10-11T11:10:33.234Z,101097.03
2022-10-11T11:13:41.656Z,101093.47
2022-10-11T11:17:12.534Z,101094.31
2022-10-11T11:20:38.380Z,101097.63
2022-10-11T11:23:40.636Z,101099.75
2022-10-11T11:26:59.079Z,101097.16
2022-10-11T11:30:06.535Z,101093.41
2022-10-11T11:33:09.317Z,101092.06
2022-10-11T11:36:13.902Z,101090.69
2022-10-11T11:39:19.247Z,101090.41
2022-10-11T11:42:24.583Z,101083.66
2022-10-11T11:45:30.153Z,101084.41
2022-10-11T11:48:32.705Z,101078.44
2022-10-11T11:51:41.301Z,101083.25
2022-10-11T11:54:46.619Z,101082.81
2022-10-11T11:58:13.022Z,101085.13
2022-10-11T12:01:26.495Z,101077.75
2022-10-11T12:04:34.326Z,101070.41
2022-10-11T12:07:48.054Z,101074.25
2022-10-11T12:10:50.655Z,101080.66
2022-10-11T12:13:53.943Z,101074.53
2022-10-11T12:17:07.569Z,101079.91
2022-10-11T12:20:31.543Z,101073.87
2022-10-11T12:23:39.489Z,101062.84
2022-10-11T12:26:43.509Z,101068.94
2022-10-11T12:29:47.952Z,101067.91
2022-10-11T12:32:51.152Z,101063.78
2022-10-11T12:35:53.665Z,101062.00
2022-10-11T12:39:14.779Z,101059.16
2022-10-11T12:42:24.784Z,101059.34
2022-10-11T12:45:31.239Z,101058.66
2022-10-11T12:48:37.205Z,101056.47
2022-10-11T12:52:00.904Z,101059.75
2022-10-11T12:55:11.442Z,101053.91
2022-10-11T12:58:41.203Z,101049.97
2022-10-11T13:01:54.524Z,101047.06
2022-10-11T13:05:18.000Z,101048.56
2022-10-11T13:08:32.196Z,101043.09
2022-10-11T13:11:37.231Z,101041.50
2022-10-11T13:14:44.537Z,101044.44
2022-10-11T13:17:48.694Z,101039.16
2022-10-11T13:20:51.290Z,101046.81
2022-10-11T13:24:01.561Z,101047.34
2022-10-11T13:27:05.122Z,101046.44
2022-10-11T13:30:11.255Z,101050.06
2022-10-11T13:33:20.011Z,101044.59
2022-10-11T13:36:24.612Z,101049.19
2022-10-11T13:39:31.209Z,101043.34
2022-10-11T13:42:33.919Z,101036.87
2022-10-11T13:45:37.084Z,101038.78
2022-10-11T13:48:41.018Z,101048.41
2022-10-11T13:51:43.561Z,101044.78
2022-10-11T13:54:57.900Z,101043.72
2022-10-11T13:58:01.557Z,101050.44
2022-10-11T14:01:05.655Z,101046.44
2022-10-11T14:04:09.575Z,101046.91
2022-10-11T14:07:33.552Z,101051.38
2022-10-11T14:10:36.090Z,101047.78
2022-10-11T14:13:39.772Z,101051.34
2022-10-11T14:16:54.488Z,101045.19
2022-10-11T14:20:22.807Z,101050.91
2022-10-11T14:23:25.274Z,101045.31
2022-10-11T14:26:31.257Z,101053.09
2022-10-11T14:29:35.317Z,101053.09
2022-10-11T14:32:37.861Z,101048.66
2022-10-11T14:35:41.562Z,101049.97
2022-10-11T14:38:43.803Z,101050.94
2022-10-11T14:41:46.714Z,101056.47
2022-10-11T14:44:48.951Z,101052.06
2022-10-11T14:47:51.950Z,101052.22
2022-10-11T14:50:57.439Z,101054.09
2022-10-11T14:54:00.003Z,101048.38
2022-10-11T14:57:03.362Z,101046.72
2022-10-11T15:00:16.214Z,101054.78
2022-10-11T15:03:18.507Z,101042.72
2022-10-11T15:06:29.958Z,101046.28
2022-10-11T15:09:32.256Z,101043.97
2022-10-11T15:12:34.816Z,101041.03
2022-10-11T15:15:40.789Z,101041.66
2022-10-11T15:18:44.080Z,101050.13
2022-10-11T15:21:46.696Z,101044.38
2022-10-11T15:24:51.635Z,101052.72
2022-10-11T15:27:54.100Z,101055.72
2022-10-11T15:30:57.038Z,101065.00
2022-10-11T15:34:01.687Z,101061.88
2022-10-11T15:37:04.129Z,101059.59
2022-10-11T15:40:14.807Z,101061.31
2022-10-11T15:43:22.012Z,101064.16
2022-10-11T15:46:26.619Z,101069.53
2022-10-11T15:49:29.168Z,101071.72
2022-10-11T15:52:31.570Z,101071.28
2022-10-11T15:55:37.860Z,101080.63
2022-10-11T15:58:40.834Z,101082.06
2022-10-11T16:01:43.442Z,101084.34
2022-10-11T16:04:46.011Z,101083.78
2022-10-11T16:07:48.260Z,101079.00
2022-10-11T16:10:53.066Z,101086.62
2022-10-11T16:13:55.328Z,101104.72
2022-10-11T16:17:00.419Z,101097.28
2022-10-11T16:20:06.709Z,101099.53
2022-10-11T16:23:28.351Z,101105.03
2022-10-11T16:26:30.564Z,101094.03
2022-10-11T16:29:33.150Z,101105.00
2022-10-11T16:32:35.382Z,101103.75
2022-10-11T16:35:41.389Z,101107.53
2022-10-11T16:38:48.722Z,101111.19
2022-10-11T16:41:51.347Z,101113.97
2022-10-11T16:44:53.581Z,101115.72
2022-10-11T16:47:56.079Z,101115.56
2022-10-11T16:51:04.778Z,101116.09
2022-10-11T16:54:07.381Z,101125.94
2022-10-11T16:57:10.829Z,101126.81
2022-10-11T17:00:15.785Z,101130.06
2022-10-11T17:03:18.160Z,101134.81
2022-10-11T17:06:20.747Z,101144.06
2022-10-11T17:09:22.982Z,101138.41
2022-10-11T17:12:25.645Z,101143.78
2022-10-11T17:15:29.744Z,101139.50
2022-10-11T17:18:32.376Z,101146.28
2022-10-11T17:21:34.615Z,101149.69
2022-10-11T17:24:38.060Z,101141.44
2022-10-11T17:27:40.267Z,101153.56
2022-10-11T17:30:43.104Z,101148.66
2022-10-11T17:33:46.753Z,101155.84
2022-10-11T17:36:49.339Z,101156.03
2022-10-11T17:39:52.790Z,101158.53
2022-10-11T17:42:55.367Z,101166.75
2022-10-11T17:45:58.599Z,101168.84
2022-10-11T17:49:04.738Z,101166.13
2022-10-11T17:52:07.054Z,101165.44
2022-10-11T17:55:09.703Z,101170.81
2022-10-11T17:58:12.456Z,101168.13
2022-10-11T18:01:17.884Z,101169.37
2022-10-11T18:04:21.636Z,101172.37
2022-10-11T18:07:24.208Z,101174.59
2022-10-11T18:10:27.509Z,101175.19
2022-10-11T18:13:29.850Z,101178.94
2022-10-11T18:16:32.991Z,101177.50
2022-10-11T18:19:35.240Z,101172.31
2022-10-11T18:22:37.781Z,101171.47
2022-10-11T18:25:40.020Z,101182.44
2022-10-11T18:28:42.968Z,101179.37
2022-10-11T18:31:45.252Z,101173.34
2022-10-11T18:34:47.755Z,101180.91
2022-10-11T18:37:50.891Z,101177.03
2022-10-11T18:40:53.418Z,101176.66
2022-10-11T18:43:56.481Z,101184.62
2022-10-11T18:46:59.062Z,101177.69
2022-10-11T18:50:01.770Z,101178.75
2022-10-11T18:56:08.957Z,101180.25
2022-10-11T18:59:12.244Z,101169.44
2022-10-11T19:02:14.475Z,101171.59
2022-10-11T19:05:17.036Z,101166.53
2022-10-11T19:08:19.341Z,101164.44
2022-10-11T19:11:22.764Z,101171.12
2022-10-11T19:14:26.907Z,101173.41
2022-10-11T19:17:29.839Z,101181.59
2022-10-11T19:20:34.366Z,101189.00
2022-10-11T19:23:39.421Z,101182.34
2022-10-11T19:26:41.911Z,101178.88
2022-10-11T19:29:44.393Z,101184.12
2022-10-11T19:32:46.635Z,101180.84
2022-10-11T19:35:55.650Z,101185.91
2022-10-11T19:38:57.979Z,101189.19
2022-10-11T19:42:01.257Z,101189.09
2022-10-11T19:45:03.646Z,101186.37
2022-10-11T19:48:06.108Z,101187.06
2022-10-11T19:51:09.536Z,101196.59
2022-10-11T19:54:12.884Z,101192.06
2022-10-11T19:57:15.113Z,101189.37
2022-10-11T20:00:17.776Z,101203.25
2022-10-11T20:03:20.215Z,101197.75
2022-10-11T20:06:23.268Z,101195.12
2022-10-11T20:09:30.210Z,101202.81
2022-10-11T20:12:33.529Z,101207.06
2022-10-11T20:15:39.486Z,101207.97
2022-10-11T20:18:41.991Z,101210.88
2022-10-11T20:21:44.999Z,101211.31
2022-10-11T20:24:47.251Z,101207.41
2022-10-11T20:27:49.807Z,101205.28
2022-10-11T20:30:52.349Z,101206.78
2022-10-11T20:33:56.740Z,101207.41
2022-10-11T20:36:59.073Z,101210.56
2022-10-11T20:40:01.565Z,101206.56
2022-10-11T20:43:03.768Z,101211.19
2022-10-11T20:46:07.879Z,101214.84
2022-10-11T20:49:11.846Z,101210.72
2022-10-11T20:52:14.367Z,101213.63
2022-10-11T20:55:16.671Z,101213.03
2022-10-11T20:58:19.558Z,101212.38
2022-10-11T21:01:26.344Z,101214.34
2022-10-11T21:04:29.272Z,101211.00
2022-10-11T21:07:31.785Z,101214.62
2022-10-11T21:10:50.723Z,101218.03
2022-10-11T21:13:56.454Z,101218.16
2022-10-11T21:16:58.982Z,101220.03
2022-10-11T21:20:03.583Z,101219.25
2022-10-11T21:23:06.210Z,101214.91
2022-10-11T21:26:10.276Z,101215.25
2022-10-11T21:29:12.840Z,101223.41
2022-10-11T21:32:15.059Z,101214.00
2022-10-11T21:35:17.700Z,101214.19
2022-10-11T21:38:19.887Z,101223.03
2022-10-11T21:41:23.402Z,101228.44
2022-10-11T21:44:25.728Z,101223.50
2022-10-11T21:47:28.239Z,101222.72
2022-10-11T21:50:30.635Z,101224.56
2022-10-11T21:53:33.448Z,101224.69
2022-10-11T21:56:35.672Z,101228.28
2022-10-11T21:59:38.207Z,101218.84
2022-10-11T22:02:40.459Z,101221.69
2022-10-11T22:05:43.894Z,101225.38
2022-10-11T22:08:46.478Z,101228.94
2022-10-11T22:11:49.044Z,101221.97
2022-10-11T22:14:51.179Z,101223.69
2022-10-11T22:17:53.715Z,101221.00
2022-10-11T22:21:01.787Z,101222.16
2022-10-11T22:24:04.694Z,101225.06
2022-10-11T22:27:07.243Z,101216.63
2022-10-11T22:30:09.859Z,101216.78
2022-10-11T22:33:12.303Z,101217.00
2022-10-11T22:36:19.069Z,101217.06
2022-10-11T22:39:21.215Z,101220.66
2022-10-11T22:42:27.573Z,101226.84
2022-10-11T22:45:30.085Z,101222.50
2022-10-11T22:48:32.587Z,101221.59
2022-10-11T22:51:34.834Z,101224.28
2022-10-11T22:54:37.259Z,101218.22
2022-10-11T22:57:39.486Z,101220.88
2022-10-11T23:00:42.792Z,101213.88
2022-10-11T23:03:48.409Z,101219.06
2022-10-11T23:06:50.983Z,101222.50
2022-10-11T23:09:53.304Z,101225.97
2022-10-11T23:12:55.875Z,101218.22
2022-10-11T23:15:58.100Z,101221.69
2022-10-11T23:19:00.635Z,101219.19
2022-10-11T23:22:03.827Z,101231.41
2022-10-11T23:25:06.617Z,101233.19
2022-10-11T23:28:08.907Z,101243.75
2022-10-11T23:31:18.418Z,101253.41
2022-10-11T23:34:20.716Z,101238.78
2022-10-11T23:37:23.309Z,101241.41
2022-10-11T23:40:25.628Z,101244.94
2022-10-11T23:43:28.673Z,101239.84
2022-10-11T23:46:30.904Z,101247.69
2022-10-11T23:49:33.567Z,101248.62
2022-10-11T23:52:36.088Z,101245.97
2022-10-11T23:55:38.617Z,101246.87
2022-10-11T23:58:41.239Z,101255.56
